Terminal Aerodrome Forecast
Issued by NWS

Home | Current Version | Previous Version | Text Only | Print | Product List | Glossary On
Versions: 1 2 3 4 5 6 7 8 9 10 11 12
000
FTUS44 KCRP 252338
TAFLRD
TAF
KLRD 252338Z 2600/2624 09010KT P6SM SKC
      TEMPO 2606/2609 BKN030
     FM260900 09005KT P6SM SCT015 BKN030
      TEMPO 2609/2612 BKN015 OVC030
     FM261500 11004KT P6SM BKN025
     FM261700 17005KT P6SM BKN050=

USA.gov is the U.S. government's official web portal to all federal, state and local government web resources and services.